sensor_id;sensor_type;location;lat;lon;timestamp;pressure;altitude;pressure_sealevel;temperature;humidity
50734;BME280;36701;51.798;19.474;2022-08-03T00:02:00;99139.91;;;18.95;100.00
50734;BME280;36701;51.798;19.474;2022-08-03T00:04:33;99167.19;;;18.95;100.00
50734;BME280;36701;51.798;19.474;2022-08-03T00:06:59;99168.81;;;19.10;100.00
50734;BME280;36701;51.798;19.474;2022-08-03T00:09:25;99135.06;;;18.92;100.00
50734;BME280;36701;51.798;19.474;2022-08-03T00:11:52;99132.22;;;18.83;100.00
50734;BME280;36701;51.798;19.474;2022-08-03T00:14:18;99131.38;;;18.82;100.00
50734;BME280;36701;51.798;19.474;2022-08-03T00:16:44;99135.62;;;18.75;100.00
50734;BME280;36701;51.798;19.474;2022-08-03T00:19:11;99155.25;;;18.91;100.00
50734;BME280;36701;51.798;19.474;2022-08-03T00:21:38;99128.16;;;18.80;100.00
50734;BME280;36701;51.798;19.474;2022-08-03T00:24:10;99128.94;;;18.81;100.00
50734;BME280;36701;51.798;19.474;2022-08-03T00:26:37;99160.13;;;19.08;100.00
50734;BME280;36701;51.798;19.474;2022-08-03T00:29:03;99156.31;;;19.09;100.00
50734;BME280;36701;51.798;19.474;2022-08-03T00:31:30;99147.81;;;18.96;100.00
50734;BME280;36701;51.798;19.474;2022-08-03T00:33:56;99121.78;;;18.71;100.00
50734;BME280;36701;51.798;19.474;2022-08-03T00:36:23;99125.69;;;18.65;100.00
50734;BME280;36701;51.798;19.474;2022-08-03T00:38:49;99125.69;;;18.65;100.00
50734;BME280;36701;51.798;19.474;2022-08-03T00:41:16;99159.25;;;18.79;100.00
50734;BME280;36701;51.798;19.474;2022-08-03T00:43:42;99126.59;;;18.60;100.00
50734;BME280;36701;51.798;19.474;2022-08-03T00:46:09;99163.72;;;18.75;100.00
50734;BME280;36701;51.798;19.474;2022-08-03T00:48:36;99123.87;;;18.46;100.00
50734;BME280;36701;51.798;19.474;2022-08-03T00:51:03;99115.16;;;18.44;100.00
50734;BME280;36701;51.798;19.474;2022-08-03T00:53:30;99123.03;;;18.46;100.00
50734;BME280;36701;51.798;19.474;2022-08-03T00:55:57;99156.81;;;18.64;100.00
50734;BME280;36701;51.798;19.474;2022-08-03T00:58:24;99150.34;;;18.60;100.00
50734;BME280;36701;51.798;19.474;2022-08-03T01:00:50;99159.03;;;18.62;100.00
50734;BME280;36701;51.798;19.474;2022-08-03T01:03:17;99154.16;;;18.59;100.00
50734;BME280;36701;51.798;19.474;2022-08-03T01:05:52;99156.63;;;18.74;100.00
50734;BME280;36701;51.798;19.474;2022-08-03T01:11:07;99124.97;;;18.45;100.00
50734;BME280;36701;51.798;19.474;2022-08-03T01:14:17;99156.91;;;18.59;100.00
50734;BME280;36701;51.798;19.474;2022-08-03T01:24:31;99154.34;;;18.48;100.00
50734;BME280;36701;51.798;19.474;2022-08-03T01:27:25;99159.22;;;18.51;100.00
50734;BME280;36701;51.798;19.474;2022-08-03T01:30:07;99159.16;;;18.38;100.00
50734;BME280;36701;51.798;19.474;2022-08-03T01:32:44;99163.72;;;18.42;100.00
50734;BME280;36701;51.798;19.474;2022-08-03T01:35:14;99164.63;;;18.38;100.00
50734;BME280;36701;51.798;19.474;2022-08-03T01:38:03;99166.69;;;18.60;100.00
50734;BME280;36701;51.798;19.474;2022-08-03T01:40:33;99165.06;;;18.59;100.00
50734;BME280;36701;51.798;19.474;2022-08-03T01:43:05;99135.47;;;18.38;100.00
50734;BME280;36701;51.798;19.474;2022-08-03T01:45:34;99170.22;;;18.60;100.00
50734;BME280;36701;51.798;19.474;2022-08-03T01:48:03;99164.91;;;18.69;100.00
50734;BME280;36701;51.798;19.474;2022-08-03T01:50:30;99145.25;;;18.39;100.00
50734;BME280;36701;51.798;19.474;2022-08-03T01:52:57;99132.91;;;18.28;100.00
50734;BME280;36701;51.798;19.474;2022-08-03T01:55:25;99154.53;;;18.38;100.00
50734;BME280;36701;51.798;19.474;2022-08-03T01:57:54;99151.88;;;18.33;100.00
50734;BME280;36701;51.798;19.474;2022-08-03T02:00:22;99125.59;;;18.09;100.00
50734;BME280;36701;51.798;19.474;2022-08-03T02:02:50;99140.97;;;18.19;100.00
50734;BME280;36701;51.798;19.474;2022-08-03T02:05:18;99152.66;;;18.20;100.00
50734;BME280;36701;51.798;19.474;2022-08-03T02:07:46;99155.69;;;18.18;100.00
50734;BME280;36701;51.798;19.474;2022-08-03T02:10:18;99122.72;;;18.01;100.00
50734;BME280;36701;51.798;19.474;2022-08-03T02:12:45;99142.13;;;18.13;100.00
50734;BME280;36701;51.798;19.474;2022-08-03T02:15:15;99145.75;;;18.08;100.00
50734;BME280;36701;51.798;19.474;2022-08-03T02:17:49;99137.22;;;17.96;100.00
50734;BME280;36701;51.798;19.474;2022-08-03T02:20:16;99099.22;;;17.86;100.00
50734;BME280;36701;51.798;19.474;2022-08-03T02:22:43;99117.16;;;17.87;100.00
50734;BME280;36701;51.798;19.474;2022-08-03T02:25:13;99088.13;;;17.63;100.00
50734;BME280;36701;51.798;19.474;2022-08-03T02:27:44;99153.13;;;17.89;100.00
50734;BME280;36701;51.798;19.474;2022-08-03T02:30:14;99119.00;;;17.72;100.00
50734;BME280;36701;51.798;19.474;2022-08-03T02:32:43;99155.28;;;17.87;100.00
50734;BME280;36701;51.798;19.474;2022-08-03T02:35:15;99120.62;;;17.73;100.00
50734;BME280;36701;51.798;19.474;2022-08-03T02:37:46;99155.59;;;18.04;100.00
50734;BME280;36701;51.798;19.474;2022-08-03T02:40:14;99126.31;;;17.96;100.00
50734;BME280;36701;51.798;19.474;2022-08-03T02:42:44;99150.84;;;17.96;100.00
50734;BME280;36701;51.798;19.474;2022-08-03T02:45:12;99118.97;;;17.77;100.00
50734;BME280;36701;51.798;19.474;2022-08-03T02:47:41;99152.38;;;18.02;100.00
50734;BME280;36701;51.798;19.474;2022-08-03T02:50:10;99128.12;;;17.82;100.00
50734;BME280;36701;51.798;19.474;2022-08-03T02:52:37;99148.56;;;18.03;100.00
50734;BME280;36701;51.798;19.474;2022-08-03T02:55:07;99159.47;;;18.03;100.00
50734;BME280;36701;51.798;19.474;2022-08-03T02:57:35;99160.75;;;17.87;100.00
50734;BME280;36701;51.798;19.474;2022-08-03T03:00:03;99156.94;;;17.88;100.00
50734;BME280;36701;51.798;19.474;2022-08-03T03:02:30;99093.31;;;17.40;100.00
50734;BME280;36701;51.798;19.474;2022-08-03T03:04:58;99162.75;;;17.81;100.00
50734;BME280;36701;51.798;19.474;2022-08-03T03:07:26;99169.78;;;17.82;100.00
50734;BME280;36701;51.798;19.474;2022-08-03T03:09:53;99140.78;;;17.72;100.00
50734;BME280;36701;51.798;19.474;2022-08-03T03:12:20;99140.22;;;17.75;100.00
50734;BME280;36701;51.798;19.474;2022-08-03T03:14:46;99159.12;;;17.86;100.00
50734;BME280;36701;51.798;19.474;2022-08-03T03:17:13;99165.69;;;17.85;100.00
50734;BME280;36701;51.798;19.474;2022-08-03T03:19:41;99131.75;;;17.58;100.00
50734;BME280;36701;51.798;19.474;2022-08-03T03:22:11;99173.84;;;17.85;100.00
50734;BME280;36701;51.798;19.474;2022-08-03T03:24:38;99156.50;;;17.81;100.00
50734;BME280;36701;51.798;19.474;2022-08-03T03:27:06;99160.03;;;17.81;100.00
50734;BME280;36701;51.798;19.474;2022-08-03T03:29:33;99152.06;;;17.85;100.00
50734;BME280;36701;51.798;19.474;2022-08-03T03:32:00;99129.47;;;17.65;100.00
50734;BME280;36701;51.798;19.474;2022-08-03T03:34:28;99165.88;;;17.93;100.00
50734;BME280;36701;51.798;19.474;2022-08-03T03:36:55;99126.22;;;17.82;100.00
50734;BME280;36701;51.798;19.474;2022-08-03T03:39:22;99117.34;;;17.76;100.00
50734;BME280;36701;51.798;19.474;2022-08-03T03:41:48;99128.66;;;17.84;100.00
50734;BME280;36701;51.798;19.474;2022-08-03T03:44:15;99125.91;;;17.84;100.00
50734;BME280;36701;51.798;19.474;2022-08-03T03:46:42;99127.62;;;17.79;100.00
50734;BME280;36701;51.798;19.474;2022-08-03T03:49:08;99142.53;;;18.06;100.00
50734;BME280;36701;51.798;19.474;2022-08-03T03:51:35;99127.03;;;17.83;100.00
50734;BME280;36701;51.798;19.474;2022-08-03T03:54:03;99162.69;;;18.05;100.00
50734;BME280;36701;51.798;19.474;2022-08-03T03:56:32;99172.81;;;18.19;100.00
50734;BME280;36701;51.798;19.474;2022-08-03T03:58:58;99168.72;;;18.21;100.00
50734;BME280;36701;51.798;19.474;2022-08-03T04:01:24;99140.09;;;18.05;100.00
50734;BME280;36701;51.798;19.474;2022-08-03T04:03:51;99148.84;;;18.21;100.00
50734;BME280;36701;51.798;19.474;2022-08-03T04:06:18;99168.63;;;18.26;100.00
50734;BME280;36701;51.798;19.474;2022-08-03T04:09:03;99145.75;;;18.08;100.00
50734;BME280;36701;51.798;19.474;2022-08-03T04:11:51;99151.75;;;18.24;100.00
50734;BME280;36701;51.798;19.474;2022-08-03T04:14:35;99175.91;;;18.64;100.00
50734;BME280;36701;51.798;19.474;2022-08-03T04:17:04;99181.84;;;18.85;100.00
50734;BME280;36701;51.798;19.474;2022-08-03T04:19:49;99184.94;;;18.78;100.00
50734;BME280;36701;51.798;19.474;2022-08-03T04:22:21;99184.03;;;18.83;100.00
50734;BME280;36701;51.798;19.474;2022-08-03T04:24:52;99110.53;;;18.45;100.00
50734;BME280;36701;51.798;19.474;2022-08-03T04:27:25;99189.66;;;19.05;100.00
50734;BME280;36701;51.798;19.474;2022-08-03T04:29:54;99184.41;;;19.23;100.00
50734;BME280;36701;51.798;19.474;2022-08-03T04:32:24;99185.19;;;19.23;100.00
50734;BME280;36701;51.798;19.474;2022-08-03T04:34:53;99165.59;;;19.21;100.00
50734;BME280;36701;51.798;19.474;2022-08-03T04:37:40;99196.44;;;19.50;100.00
50734;BME280;36701;51.798;19.474;2022-08-03T04:40:13;99164.56;;;19.45;100.00
50734;BME280;36701;51.798;19.474;2022-08-03T04:42:41;99189.09;;;19.73;100.00
50734;BME280;36701;51.798;19.474;2022-08-03T04:45:11;99167.56;;;19.57;100.00
50734;BME280;36701;51.798;19.474;2022-08-03T04:47:38;99158.47;;;19.62;100.00
50734;BME280;36701;51.798;19.474;2022-08-03T04:50:06;99203.09;;;20.08;100.00
50734;BME280;36701;51.798;19.474;2022-08-03T04:52:33;99208.72;;;20.25;100.00
50734;BME280;36701;51.798;19.474;2022-08-03T04:55:00;99207.34;;;20.37;100.00
50734;BME280;36701;51.798;19.474;2022-08-03T04:57:26;99200.50;;;20.48;100.00
50734;BME280;36701;51.798;19.474;2022-08-03T04:59:53;99203.75;;;20.50;100.00
50734;BME280;36701;51.798;19.474;2022-08-03T05:02:20;99209.59;;;20.57;100.00
50734;BME280;36701;51.798;19.474;2022-08-03T05:04:47;99202.28;;;20.66;100.00
50734;BME280;36701;51.798;19.474;2022-08-03T05:07:15;99169.06;;;20.59;100.00
50734;BME280;36701;51.798;19.474;2022-08-03T05:09:42;99202.09;;;20.94;100.00
50734;BME280;36701;51.798;19.474;2022-08-03T05:12:09;99208.78;;;21.11;100.00
50734;BME280;36701;51.798;19.474;2022-08-03T05:14:36;99178.31;;;21.03;100.00
50734;BME280;36701;51.798;19.474;2022-08-03T05:17:10;99195.34;;;21.32;100.00
50734;BME280;36701;51.798;19.474;2022-08-03T05:19:36;99203.09;;;21.47;100.00
50734;BME280;36701;51.798;19.474;2022-08-03T05:22:02;99178.44;;;21.38;100.00
50734;BME280;36701;51.798;19.474;2022-08-03T05:24:29;99206.72;;;21.56;100.00
50734;BME280;36701;51.798;19.474;2022-08-03T05:26:55;99188.78;;;21.41;100.00
50734;BME280;36701;51.798;19.474;2022-08-03T05:29:22;99181.75;;;21.58;100.00
50734;BME280;36701;51.798;19.474;2022-08-03T05:31:48;99218.22;;;21.85;100.00
50734;BME280;36701;51.798;19.474;2022-08-03T05:34:14;99202.72;;;21.89;100.00
50734;BME280;36701;51.798;19.474;2022-08-03T05:36:41;99202.59;;;22.03;100.00
50734;BME280;36701;51.798;19.474;2022-08-03T05:39:07;99207.59;;;22.09;100.00
50734;BME280;36701;51.798;19.474;2022-08-03T05:41:33;99217.75;;;22.18;100.00
50734;BME280;36701;51.798;19.474;2022-08-03T05:44:00;99196.31;;;22.02;100.00
50734;BME280;36701;51.798;19.474;2022-08-03T05:46:28;99211.78;;;22.16;100.00
50734;BME280;36701;51.798;19.474;2022-08-03T05:48:54;99195.97;;;21.95;100.00
50734;BME280;36701;51.798;19.474;2022-08-03T05:51:20;99211.13;;;22.01;100.00
50734;BME280;36701;51.798;19.474;2022-08-03T05:53:47;99207.91;;;21.99;100.00
50734;BME280;36701;51.798;19.474;2022-08-03T05:56:14;99196.78;;;21.95;100.00
50734;BME280;36701;51.798;19.474;2022-08-03T05:58:44;99194.69;;;22.01;100.00
50734;BME280;36701;51.798;19.474;2022-08-03T06:01:11;99190.00;;;22.10;100.00
50734;BME280;36701;51.798;19.474;2022-08-03T06:03:37;99194.69;;;22.19;100.00
50734;BME280;36701;51.798;19.474;2022-08-03T06:06:04;99189.06;;;22.33;100.00
50734;BME280;36701;51.798;19.474;2022-08-03T06:08:30;99201.81;;;22.37;100.00
50734;BME280;36701;51.798;19.474;2022-08-03T06:10:57;99226.00;;;22.53;100.00
50734;BME280;36701;51.798;19.474;2022-08-03T06:13:24;99190.19;;;22.40;100.00
50734;BME280;36701;51.798;19.474;2022-08-03T06:15:50;99223.72;;;22.72;100.00
50734;BME280;36701;51.798;19.474;2022-08-03T06:18:16;99230.81;;;22.82;100.00
50734;BME280;36701;51.798;19.474;2022-08-03T06:20:43;99198.19;;;22.72;100.00
50734;BME280;36701;51.798;19.474;2022-08-03T06:23:09;99231.09;;;22.89;100.00
50734;BME280;36701;51.798;19.474;2022-08-03T06:25:36;99200.28;;;22.83;100.00
50734;BME280;36701;51.798;19.474;2022-08-03T06:28:02;99178.84;;;22.68;100.00
50734;BME280;36701;51.798;19.474;2022-08-03T06:30:30;99202.19;;;22.92;100.00
50734;BME280;36701;51.798;19.474;2022-08-03T06:32:57;99231.37;;;23.05;100.00
50734;BME280;36701;51.798;19.474;2022-08-03T06:35:23;99197.69;;;22.87;100.00
50734;BME280;36701;51.798;19.474;2022-08-03T06:37:50;99222.16;;;23.18;100.00
50734;BME280;36701;51.798;19.474;2022-08-03T06:40:19;99201.63;;;23.16;100.00
50734;BME280;36701;51.798;19.474;2022-08-03T06:42:47;99232.25;;;23.35;100.00
50734;BME280;36701;51.798;19.474;2022-08-03T06:45:14;99230.31;;;23.36;100.00
50734;BME280;36701;51.798;19.474;2022-08-03T06:47:40;99230.59;;;23.43;100.00
50734;BME280;36701;51.798;19.474;2022-08-03T06:50:07;99237.94;;;23.30;100.00
50734;BME280;36701;51.798;19.474;2022-08-03T06:52:34;99237.63;;;23.62;100.00
50734;BME280;36701;51.798;19.474;2022-08-03T06:55:01;99201.09;;;23.31;100.00
50734;BME280;36701;51.798;19.474;2022-08-03T06:57:27;99216.47;;;23.24;100.00
50734;BME280;36701;51.798;19.474;2022-08-03T06:59:53;99213.41;;;23.55;100.00
50734;BME280;36701;51.798;19.474;2022-08-03T07:02:21;99246.16;;;23.99;100.00
50734;BME280;36701;51.798;19.474;2022-08-03T07:04:48;99218.38;;;23.91;100.00
50734;BME280;36701;51.798;19.474;2022-08-03T07:07:14;99213.47;;;23.76;100.00
50734;BME280;36701;51.798;19.474;2022-08-03T07:09:41;99212.50;;;24.02;100.00
50734;BME280;36701;51.798;19.474;2022-08-03T07:12:07;99225.72;;;24.08;100.00
50734;BME280;36701;51.798;19.474;2022-08-03T07:14:33;99246.19;;;24.62;100.00
50734;BME280;36701;51.798;19.474;2022-08-03T07:17:06;99225.47;;;24.56;100.00
50734;BME280;36701;51.798;19.474;2022-08-03T07:19:33;99185.63;;;24.62;100.00
50734;BME280;36701;51.798;19.474;2022-08-03T07:21:59;99225.41;;;24.64;100.00
50734;BME280;36701;51.798;19.474;2022-08-03T07:24:25;99252.69;;;24.91;100.00
50734;BME280;36701;51.798;19.474;2022-08-03T07:26:52;99219.38;;;24.83;100.00
50734;BME280;36701;51.798;19.474;2022-08-03T07:29:18;99249.13;;;24.90;100.00
50734;BME280;36701;51.798;19.474;2022-08-03T07:31:44;99247.28;;;24.94;100.00
50734;BME280;36701;51.798;19.474;2022-08-03T07:34:11;99225.69;;;24.84;100.00
50734;BME280;36701;51.798;19.474;2022-08-03T07:36:37;99225.59;;;24.93;100.00
50734;BME280;36701;51.798;19.474;2022-08-03T07:39:04;99248.19;;;25.44;100.00
50734;BME280;36701;51.798;19.474;2022-08-03T07:41:30;99240.06;;;25.35;100.00
50734;BME280;36701;51.798;19.474;2022-08-03T07:43:56;99215.84;;;24.95;100.00
50734;BME280;36701;51.798;19.474;2022-08-03T07:46:23;99226.88;;;25.08;100.00
50734;BME280;36701;51.798;19.474;2022-08-03T07:48:49;99255.03;;;25.13;100.00
50734;BME280;36701;51.798;19.474;2022-08-03T07:51:16;99215.69;;;24.79;100.00
50734;BME280;36701;51.798;19.474;2022-08-03T07:53:42;99247.28;;;24.94;100.00
50734;BME280;36701;51.798;19.474;2022-08-03T07:56:09;99246.41;;;25.15;100.00
50734;BME280;36701;51.798;19.474;2022-08-03T07:58:35;99223.22;;;24.58;100.00
50734;BME280;36701;51.798;19.474;2022-08-03T08:01:02;99215.00;;;24.70;100.00
50734;BME280;36701;51.798;19.474;2022-08-03T08:03:29;99253.03;;;25.01;100.00
50734;BME280;36701;51.798;19.474;2022-08-03T08:05:55;99251.63;;;24.83;100.00
50734;BME280;36701;51.798;19.474;2022-08-03T08:08:21;99244.56;;;25.19;100.00
50734;BME280;36701;51.798;19.474;2022-08-03T08:10:48;99222.75;;;25.01;100.00
50734;BME280;36701;51.798;19.474;2022-08-03T08:13:14;99223.22;;;25.04;100.00
50734;BME280;36701;51.798;19.474;2022-08-03T08:15:40;99233.34;;;25.24;100.00
50734;BME280;36701;51.798;19.474;2022-08-03T08:18:07;99231.00;;;25.01;100.00
50734;BME280;36701;51.798;19.474;2022-08-03T08:20:34;99256.66;;;25.27;100.00
50734;BME280;36701;51.798;19.474;2022-08-03T08:23:06;99220.97;;;25.30;100.00
50734;BME280;36701;51.798;19.474;2022-08-03T08:25:33;99250.31;;;25.14;100.00
50734;BME280;36701;51.798;19.474;2022-08-03T08:28:00;99247.41;;;25.44;100.00
50734;BME280;36701;51.798;19.474;2022-08-03T08:30:27;99256.00;;;25.42;100.00
50734;BME280;36701;51.798;19.474;2022-08-03T08:32:54;99231.31;;;25.33;100.00
50734;BME280;36701;51.798;19.474;2022-08-03T08:35:21;99209.91;;;25.06;100.00
50734;BME280;36701;51.798;19.474;2022-08-03T08:37:47;99226.47;;;25.30;100.00
50734;BME280;36701;51.798;19.474;2022-08-03T08:40:13;99231.66;;;25.44;100.00
50734;BME280;36701;51.798;19.474;2022-08-03T08:42:41;99225.50;;;25.01;100.00
50734;BME280;36701;51.798;19.474;2022-08-03T08:45:09;99241.63;;;25.36;100.00
50734;BME280;36701;51.798;19.474;2022-08-03T08:47:38;99232.63;;;25.27;100.00
50734;BME280;36701;51.798;19.474;2022-08-03T08:50:06;99257.72;;;25.84;100.00
50734;BME280;36701;51.798;19.474;2022-08-03T08:52:34;99265.06;;;25.80;100.00
50734;BME280;36701;51.798;19.474;2022-08-03T08:55:05;99259.09;;;25.90;100.00
50734;BME280;36701;51.798;19.474;2022-08-03T08:57:37;99265.06;;;26.04;100.00
50734;BME280;36701;51.798;19.474;2022-08-03T09:00:07;99261.37;;;26.13;100.00
50734;BME280;36701;51.798;19.474;2022-08-03T09:02:41;99238.19;;;26.01;100.00
50734;BME280;36701;51.798;19.474;2022-08-03T09:05:16;99240.22;;;26.17;100.00
